createdAt,value
2023-02-11T00:01:39.235Z,103588.75
2023-02-11T00:04:08.433Z,103580.50
2023-02-11T00:06:37.536Z,103620.84
2023-02-11T00:09:06.930Z,103552.97
2023-02-11T00:11:35.740Z,103585.13
2023-02-11T00:14:07.992Z,103578.78
2023-02-11T00:16:37.890Z,103605.03
2023-02-11T00:19:07.457Z,103586.16
2023-02-11T00:21:36.975Z,103578.34
2023-02-11T00:24:06.045Z,103585.38
2023-02-11T00:26:36.813Z,103574.06
2023-02-11T00:29:06.477Z,103603.53
2023-02-11T00:31:35.852Z,103607.53
2023-02-11T00:34:08.381Z,103606.94
2023-02-11T00:36:36.841Z,103597.59
2023-02-11T00:39:05.992Z,103570.53
2023-02-11T00:41:36.126Z,103605.03
2023-02-11T00:44:04.999Z,103573.69
2023-02-11T00:46:33.531Z,103599.34
2023-02-11T00:49:02.315Z,103602.31
2023-02-11T00:51:32.358Z,103595.72
2023-02-11T00:54:01.045Z,103528.69
2023-02-11T00:56:30.039Z,103596.19
2023-02-11T00:58:58.804Z,103591.53
2023-02-11T01:01:27.575Z,103584.31
2023-02-11T01:03:56.260Z,103596.19
2023-02-11T01:06:25.257Z,103574.22
2023-02-11T01:08:55.090Z,103588.84
2023-02-11T01:11:23.938Z,103590.31
2023-02-11T01:13:52.640Z,103584.47
2023-02-11T01:16:22.827Z,103601.66
2023-02-11T01:18:51.386Z,103596.44
2023-02-11T01:21:19.929Z,103598.59
2023-02-11T01:23:48.413Z,103598.31
2023-02-11T01:26:18.342Z,103585.56
2023-02-11T01:28:46.978Z,103592.53
2023-02-11T01:31:15.788Z,103583.28
2023-02-11T01:33:44.518Z,103581.31
2023-02-11T01:36:13.645Z,103598.59
2023-02-11T01:38:43.676Z,103588.75
2023-02-11T01:41:15.205Z,103576.66
2023-02-11T01:43:48.909Z,103549.63
2023-02-11T01:46:41.207Z,103567.22
2023-02-11T01:49:15.800Z,103545.25
2023-02-11T01:51:49.278Z,103552.94
2023-02-11T01:54:40.839Z,103560.53
2023-02-11T01:57:25.126Z,103572.19
2023-02-11T02:00:11.314Z,103563.00
2023-02-11T02:02:54.199Z,103579.16
2023-02-11T02:05:33.365Z,103567.47
2023-02-11T02:08:10.941Z,103582.88
2023-02-11T02:10:45.254Z,103557.09
2023-02-11T02:13:14.034Z,103574.88
2023-02-11T02:15:50.124Z,103575.88
2023-02-11T02:18:36.938Z,103578.69
2023-02-11T02:21:58.072Z,103583.44
2023-02-11T02:25:19.542Z,103569.72
2023-02-11T02:27:57.918Z,103575.28
2023-02-11T02:30:55.889Z,103589.91
2023-02-11T02:33:47.026Z,103579.47
2023-02-11T02:36:24.522Z,103586.97
2023-02-11T02:38:59.009Z,103557.41
2023-02-11T02:41:31.675Z,103572.13
2023-02-11T02:44:02.288Z,103559.81
2023-02-11T02:46:34.301Z,103565.78
2023-02-11T02:49:04.522Z,103582.78
2023-02-11T02:51:53.296Z,103576.56
2023-02-11T02:54:48.811Z,103580.38
2023-02-11T02:57:33.828Z,103574.63
2023-02-11T03:00:24.862Z,103576.31
2023-02-11T03:03:08.261Z,103589.66
2023-02-11T03:05:51.235Z,103590.91
2023-02-11T03:08:29.480Z,103577.31
2023-02-11T03:11:00.233Z,103591.16
2023-02-11T03:13:33.969Z,103571.56
2023-02-11T03:16:09.453Z,103577.31
2023-02-11T03:18:40.885Z,103567.47
2023-02-11T03:21:12.422Z,103535.72
2023-02-11T03:23:46.011Z,103567.63
2023-02-11T03:26:21.052Z,103565.03
2023-02-11T03:28:56.917Z,103568.84
2023-02-11T03:31:32.199Z,103577.69
2023-02-11T03:34:09.740Z,103577.69
2023-02-11T03:36:47.266Z,103556.97
2023-02-11T03:39:21.176Z,103558.91
2023-02-11T03:41:51.130Z,103564.19
2023-02-11T03:44:22.075Z,103562.81
2023-02-11T03:46:53.612Z,103548.13
2023-02-11T03:49:25.641Z,103553.53
2023-02-11T03:51:57.612Z,103552.00
2023-02-11T03:54:32.143Z,103533.78
2023-02-11T03:57:03.343Z,103541.22
2023-02-11T03:59:31.984Z,103537.91
2023-02-11T04:02:00.500Z,103562.03
2023-02-11T04:04:28.983Z,103552.41
2023-02-11T04:06:58.724Z,103550.72
2023-02-11T04:09:27.080Z,103556.13
2023-02-11T04:11:55.408Z,103524.72
2023-02-11T04:14:23.714Z,103555.56
2023-02-11T04:16:51.999Z,103556.75
2023-02-11T04:19:20.349Z,103535.69
2023-02-11T04:21:49.036Z,103541.91
2023-02-11T04:24:18.993Z,103543.94
2023-02-11T04:26:47.401Z,103541.03
2023-02-11T04:29:15.844Z,103536.50
2023-02-11T04:31:44.267Z,103548.84
2023-02-11T04:34:12.709Z,103538.09
2023-02-11T04:36:41.113Z,103554.97
2023-02-11T04:39:09.644Z,103553.81
2023-02-11T04:41:39.417Z,103540.34
2023-02-11T04:44:07.985Z,103548.84
2023-02-11T04:46:36.323Z,103548.16
2023-02-11T04:49:05.553Z,103524.06
2023-02-11T04:51:34.039Z,103525.84
2023-02-11T04:54:02.336Z,103550.75
2023-02-11T04:56:31.201Z,103553.22
2023-02-11T04:59:01.120Z,103547.34
2023-02-11T05:01:29.783Z,103559.69
2023-02-11T05:03:59.147Z,103559.56
2023-02-11T05:06:27.762Z,103551.88
2023-02-11T05:08:56.133Z,103550.66
2023-02-11T05:11:26.663Z,103519.50
2023-02-11T05:13:55.001Z,103567.00
2023-02-11T05:16:24.874Z,103568.38
2023-02-11T05:18:53.790Z,103565.88
2023-02-11T05:21:22.250Z,103532.75
2023-02-11T05:23:51.059Z,103580.25
2023-02-11T05:26:19.773Z,103550.38
2023-02-11T05:28:48.210Z,103570.19
2023-02-11T05:31:16.947Z,103572.78
2023-02-11T05:33:46.680Z,103554.81
2023-02-11T05:36:15.965Z,103548.00
2023-02-11T05:38:44.472Z,103580.91
2023-02-11T05:41:13.302Z,103562.69
2023-02-11T05:43:41.734Z,103567.13
2023-02-11T05:46:10.152Z,103560.47
2023-02-11T05:48:38.425Z,103558.19
2023-02-11T05:51:08.209Z,103554.00
2023-02-11T05:53:36.858Z,103547.66
2023-02-11T05:56:05.831Z,103549.94
2023-02-11T05:58:34.289Z,103535.59
2023-02-11T06:01:02.664Z,103552.09
2023-02-11T06:03:30.987Z,103519.03
2023-02-11T06:05:59.491Z,103553.00
2023-02-11T06:08:29.240Z,103551.19
2023-02-11T06:10:57.683Z,103543.28
2023-02-11T06:13:25.974Z,103546.34
2023-02-11T06:15:58.614Z,103541.56
2023-02-11T06:18:27.751Z,103552.41
2023-02-11T06:20:56.924Z,103542.34
2023-02-11T06:23:25.293Z,103573.03
2023-02-11T06:25:55.015Z,103572.47
2023-02-11T06:28:23.373Z,103569.75
2023-02-11T06:30:51.861Z,103564.03
2023-02-11T06:33:20.283Z,103550.34
2023-02-11T06:35:48.769Z,103558.03
2023-02-11T06:38:17.362Z,103560.47
2023-02-11T06:40:49.503Z,103552.09
2023-02-11T06:43:19.481Z,103575.75
2023-02-11T06:45:55.258Z,103557.06
2023-02-11T06:48:24.662Z,103576.09
2023-02-11T06:50:53.483Z,103567.25
2023-02-11T06:53:21.908Z,103531.94
2023-02-11T06:55:50.703Z,103578.81
2023-02-11T06:58:20.661Z,103583.56
2023-02-11T07:00:49.066Z,103584.91
2023-02-11T07:03:17.560Z,103593.63
2023-02-11T07:05:46.067Z,103586.94
2023-02-11T07:08:14.413Z,103599.06
2023-02-11T07:10:42.999Z,103595.44
2023-02-11T07:13:11.406Z,103537.19
2023-02-11T07:15:41.171Z,103589.34
2023-02-11T07:18:09.534Z,103575.19
2023-02-11T07:20:39.722Z,103596.69
2023-02-11T07:23:08.083Z,103583.34
2023-02-11T07:25:37.677Z,103605.41
2023-02-11T07:28:06.500Z,103592.25
2023-02-11T07:30:34.857Z,103582.09
2023-02-11T07:33:04.678Z,103608.81
2023-02-11T07:35:33.206Z,103610.25
2023-02-11T07:38:01.622Z,103623.06
2023-02-11T07:40:31.601Z,103618.50
2023-02-11T07:43:01.670Z,103617.50
2023-02-11T07:45:30.170Z,103600.66
2023-02-11T07:47:59.085Z,103634.03
2023-02-11T07:50:28.789Z,103616.38
2023-02-11T07:52:57.131Z,103635.34
2023-02-11T07:55:25.455Z,103643.19
2023-02-11T07:57:53.816Z,103623.63
2023-02-11T08:00:22.403Z,103625.91
2023-02-11T08:02:50.752Z,103606.81
2023-02-11T08:05:19.346Z,103634.88
2023-02-11T08:07:51.713Z,103634.56
2023-02-11T08:10:20.438Z,103639.50
2023-02-11T08:12:49.245Z,103619.66
2023-02-11T08:15:17.745Z,103645.50
2023-02-11T08:17:46.092Z,103645.25
2023-02-11T08:20:14.705Z,103640.34
2023-02-11T08:22:43.068Z,103639.34
2023-02-11T08:25:12.818Z,103635.69
2023-02-11T08:27:41.161Z,103639.34
2023-02-11T08:30:11.396Z,103642.34
2023-02-11T08:32:39.997Z,103645.63
2023-02-11T08:35:09.657Z,103638.13
2023-02-11T08:37:38.325Z,103644.66
2023-02-11T08:40:07.872Z,103644.03
2023-02-11T08:42:37.883Z,103636.34
2023-02-11T08:45:07.444Z,103639.41
2023-02-11T08:47:35.889Z,103641.50
2023-02-11T08:50:04.499Z,103640.72
2023-02-11T08:52:32.847Z,103645.72
2023-02-11T08:55:01.398Z,103628.78
2023-02-11T08:57:29.690Z,103650.22
2023-02-11T08:59:59.506Z,103649.72
2023-02-11T09:02:27.840Z,103644.47
2023-02-11T09:04:56.288Z,103651.06
2023-02-11T09:07:24.730Z,103636.69
2023-02-11T09:09:53.266Z,103660.13
2023-02-11T09:12:21.597Z,103629.34
2023-02-11T09:14:50.298Z,103625.25
2023-02-11T09:17:22.507Z,103628.47
2023-02-11T09:19:51.176Z,103656.34
2023-02-11T09:22:19.657Z,103659.72
2023-02-11T09:24:48.091Z,103658.13
2023-02-11T09:27:16.420Z,103604.69
2023-02-11T09:29:44.797Z,103621.66
2023-02-11T09:32:13.294Z,103669.91
2023-02-11T09:34:43.244Z,103658.84
2023-02-11T09:37:11.656Z,103626.59
2023-02-11T09:39:40.070Z,103671.81
2023-02-11T09:42:47.118Z,103631.31
2023-02-11T09:45:21.910Z,103666.06
2023-02-11T09:47:56.642Z,103657.72
2023-02-11T09:50:33.735Z,103652.00
2023-02-11T09:53:05.966Z,103674.03
2023-02-11T09:55:39.624Z,103655.84
2023-02-11T09:58:14.212Z,103680.72
2023-02-11T10:00:48.624Z,103660.97
2023-02-11T10:03:52.690Z,103676.44
2023-02-11T10:06:42.037Z,103665.09
2023-02-11T10:09:36.772Z,103686.53
2023-02-11T10:12:26.887Z,103691.00
2023-02-11T10:15:21.667Z,103689.13
2023-02-11T10:18:08.672Z,103673.75
2023-02-11T10:20:40.372Z,103649.88
2023-02-11T10:23:17.918Z,103673.31
2023-02-11T10:25:50.756Z,103660.84
2023-02-11T10:28:22.008Z,103679.81
2023-02-11T10:30:59.500Z,103683.75
2023-02-11T10:33:32.613Z,103691.88
2023-02-11T10:36:01.502Z,103678.22
2023-02-11T10:38:33.043Z,103704.25
2023-02-11T10:41:01.540Z,103705.31
2023-02-11T10:43:33.011Z,103699.41
2023-02-11T10:46:06.220Z,103694.31
2023-02-11T10:48:41.588Z,103717.16
2023-02-11T10:51:21.884Z,103722.63
2023-02-11T10:54:14.476Z,103711.75
2023-02-11T10:56:50.129Z,103733.72
2023-02-11T10:59:28.669Z,103720.19
2023-02-11T11:02:01.338Z,103730.69
2023-02-11T11:04:45.481Z,103727.22
2023-02-11T11:07:21.733Z,103717.81
2023-02-11T11:09:55.051Z,103719.41
2023-02-11T11:12:28.761Z,103727.41
2023-02-11T11:14:59.962Z,103710.69
2023-02-11T11:17:29.862Z,103730.94
2023-02-11T11:20:35.488Z,103730.59
2023-02-11T11:23:18.689Z,103724.50
2023-02-11T11:26:05.033Z,103725.22
2023-02-11T11:28:41.336Z,103711.75
2023-02-11T11:31:19.199Z,103726.03
2023-02-11T11:33:49.261Z,103733.81
2023-02-11T11:36:22.639Z,103724.50
2023-02-11T11:38:55.402Z,103737.25
2023-02-11T11:41:31.183Z,103711.69
2023-02-11T11:44:04.284Z,103732.22
2023-02-11T11:46:36.756Z,103696.44
2023-02-11T11:49:19.044Z,103680.47
2023-02-11T11:51:58.537Z,103723.41
2023-02-11T11:54:29.260Z,103724.03
2023-02-11T11:57:12.608Z,103733.53
2023-02-11T11:59:41.605Z,103739.94
2023-02-11T12:02:46.650Z,103744.47
2023-02-11T12:05:23.813Z,103744.22
2023-02-11T12:08:09.714Z,103739.59
2023-02-11T12:11:03.014Z,103747.50
2023-02-11T12:13:50.427Z,103728.16
2023-02-11T12:16:29.938Z,103727.06
2023-02-11T12:19:31.715Z,103725.00
2023-02-11T12:22:22.572Z,103736.00
2023-02-11T12:25:22.132Z,103725.00
2023-02-11T12:28:08.659Z,103726.56
2023-02-11T12:30:57.672Z,103729.81
2023-02-11T12:33:52.433Z,103715.16
2023-02-11T12:36:38.322Z,103725.94
2023-02-11T12:39:23.599Z,103733.34
2023-02-11T12:42:52.129Z,103699.97
2023-02-11T12:45:36.661Z,103723.16
2023-02-11T12:48:26.991Z,103703.41
2023-02-11T12:51:03.047Z,103711.72
2023-02-11T12:53:53.812Z,103687.72
2023-02-11T12:56:31.724Z,103704.13
2023-02-11T12:59:03.099Z,103689.28
2023-02-11T13:01:35.389Z,103690.66
2023-02-11T13:04:13.472Z,103669.31
2023-02-11T13:06:47.915Z,103682.44
2023-02-11T13:09:21.385Z,103690.97
2023-02-11T13:11:56.232Z,103700.50
2023-02-11T13:14:31.519Z,103695.25
2023-02-11T13:17:00.702Z,103689.78
2023-02-11T13:19:38.155Z,103688.75
2023-02-11T13:22:12.938Z,103693.69
2023-02-11T13:24:48.015Z,103676.97
2023-02-11T13:27:35.183Z,103661.97
2023-02-11T13:30:30.198Z,103694.78
2023-02-11T13:33:32.825Z,103689.50
2023-02-11T13:36:26.790Z,103665.31
2023-02-11T13:39:05.570Z,103674.88
2023-02-11T13:41:41.605Z,103653.44
2023-02-11T13:44:28.819Z,103642.34
2023-02-11T13:47:02.423Z,103669.66
2023-02-11T13:49:40.591Z,103683.06
2023-02-11T13:52:26.983Z,103682.13
2023-02-11T13:54:59.475Z,103691.09
2023-02-11T13:57:40.410Z,103680.78
2023-02-11T14:00:52.170Z,103680.50
2023-02-11T14:03:51.756Z,103671.91
2023-02-11T14:07:01.262Z,103687.72
2023-02-11T14:09:40.982Z,103692.78
2023-02-11T14:12:35.029Z,103699.88
2023-02-11T14:15:28.690Z,103681.72
2023-02-11T14:17:57.108Z,103695.84
2023-02-11T14:20:44.098Z,103694.63
2023-02-11T14:23:28.492Z,103682.28
2023-02-11T14:26:14.476Z,103699.25
2023-02-11T14:28:46.822Z,103701.81
2023-02-11T14:31:21.051Z,103685.91
2023-02-11T14:34:09.389Z,103690.13
2023-02-11T14:37:04.991Z,103689.72
2023-02-11T14:39:53.870Z,103686.06
2023-02-11T14:42:27.399Z,103698.00
2023-02-11T14:45:00.279Z,103696.94
2023-02-11T14:47:44.087Z,103689.38
2023-02-11T14:50:23.893Z,103677.19
2023-02-11T14:52:53.180Z,103691.44
2023-02-11T14:55:31.290Z,103706.59
2023-02-11T14:58:17.933Z,103708.59
2023-02-11T15:00:57.603Z,103669.91
2023-02-11T15:03:36.625Z,103676.91
2023-02-11T15:06:09.120Z,103697.47
2023-02-11T15:08:43.292Z,103704.84
2023-02-11T15:11:16.946Z,103696.34
2023-02-11T15:13:49.669Z,103708.22
2023-02-11T15:16:22.074Z,103711.72
2023-02-11T15:18:55.171Z,103703.13
2023-02-11T15:21:26.722Z,103703.63
2023-02-11T15:24:02.149Z,103696.56
2023-02-11T15:26:32.238Z,103707.31
2023-02-11T15:29:02.153Z,103707.50
2023-02-11T15:31:34.622Z,103709.59
2023-02-11T15:34:09.904Z,103709.94
2023-02-11T15:36:39.746Z,103718.75
2023-02-11T15:39:34.328Z,103710.81
2023-02-11T15:42:27.080Z,103710.50
2023-02-11T15:45:26.064Z,103704.34
2023-02-11T15:47:58.638Z,103712.66
2023-02-11T15:50:29.853Z,103711.91
2023-02-11T15:53:01.528Z,103728.50
2023-02-11T15:55:31.309Z,103714.63
2023-02-11T15:58:02.971Z,103739.56
2023-02-11T16:00:38.005Z,103749.78
2023-02-11T16:03:06.792Z,103749.44
2023-02-11T16:05:38.354Z,103746.91
2023-02-11T16:08:24.378Z,103725.00
2023-02-11T16:10:58.913Z,103732.63
2023-02-11T16:13:30.666Z,103740.63
2023-02-11T16:16:04.704Z,103730.19
2023-02-11T16:18:39.634Z,103737.88
2023-02-11T16:21:16.984Z,103740.50
2023-02-11T16:23:54.067Z,103745.00
2023-02-11T16:26:28.257Z,103735.06
2023-02-11T16:29:11.105Z,103737.31
2023-02-11T16:31:43.707Z,103743.47
2023-02-11T16:34:18.413Z,103744.53
2023-02-11T16:36:47.875Z,103740.59
2023-02-11T16:39:17.169Z,103754.50
2023-02-11T16:41:46.137Z,103752.78
2023-02-11T16:44:14.500Z,103756.22
2023-02-11T16:46:44.959Z,103735.72
2023-02-11T16:49:19.231Z,103755.56
2023-02-11T16:51:50.770Z,103749.91
2023-02-11T16:54:19.770Z,103743.66
2023-02-11T16:56:48.162Z,103755.78
2023-02-11T16:59:16.653Z,103757.28
2023-02-11T17:01:47.648Z,103758.38
2023-02-11T17:04:21.163Z,103765.16
2023-02-11T17:06:49.689Z,103757.28
2023-02-11T17:09:22.406Z,103764.34
2023-02-11T17:11:51.996Z,103768.16
2023-02-11T17:14:21.598Z,103773.00
2023-02-11T17:16:51.310Z,103781.78
2023-02-11T17:19:22.228Z,103779.78
2023-02-11T17:21:53.098Z,103778.97
2023-02-11T17:24:23.076Z,103784.97
2023-02-11T17:26:51.936Z,103783.03
2023-02-11T17:29:23.144Z,103774.13
2023-02-11T17:31:54.199Z,103793.72
2023-02-11T17:34:23.830Z,103791.09
2023-02-11T17:36:52.760Z,103793.81
2023-02-11T17:39:21.199Z,103798.84
2023-02-11T17:41:49.841Z,103794.22
2023-02-11T17:44:18.245Z,103804.22
2023-02-11T17:46:46.837Z,103800.19
2023-02-11T17:49:16.899Z,103808.72
2023-02-11T17:51:45.291Z,103802.63
2023-02-11T17:54:17.013Z,103769.56
2023-02-11T17:56:48.359Z,103781.97
2023-02-11T17:59:18.266Z,103784.88
2023-02-11T18:01:46.883Z,103806.72
2023-02-11T18:04:20.409Z,103798.59
2023-02-11T18:06:50.310Z,103802.22
2023-02-11T18:09:18.820Z,103816.66
2023-02-11T18:11:48.504Z,103810.34
2023-02-11T18:14:16.913Z,103814.97
2023-02-11T18:16:46.005Z,103791.88
2023-02-11T18:19:17.056Z,103812.22
2023-02-11T18:21:48.864Z,103788.78
2023-02-11T18:24:17.662Z,103820.69
2023-02-11T18:26:45.983Z,103806.00
2023-02-11T18:29:14.315Z,103834.41
2023-02-11T18:31:42.682Z,103809.53
2023-02-11T18:34:12.331Z,103833.50
2023-02-11T18:36:42.209Z,103813.88
2023-02-11T18:39:10.524Z,103804.56
2023-02-11T18:41:40.736Z,103839.34
2023-02-11T18:44:09.578Z,103833.81
2023-02-11T18:46:38.009Z,103830.28
2023-02-11T18:49:06.437Z,103832.50
2023-02-11T18:51:34.900Z,103837.06
2023-02-11T18:54:05.012Z,103840.97
2023-02-11T18:56:33.459Z,103835.91
2023-02-11T18:59:02.514Z,103804.53
2023-02-11T19:01:34.227Z,103812.06
2023-02-11T19:04:06.088Z,103823.97
2023-02-11T19:06:37.364Z,103832.34
2023-02-11T19:09:10.345Z,103836.50
2023-02-11T19:11:50.459Z,103838.50
2023-02-11T19:14:23.024Z,103858.53
2023-02-11T19:16:53.935Z,103813.16
2023-02-11T19:19:24.644Z,103826.41
2023-02-11T19:21:53.122Z,103841.84
2023-02-11T19:24:24.123Z,103815.63
2023-02-11T19:26:54.639Z,103817.00
2023-02-11T19:29:23.112Z,103836.91
2023-02-11T19:31:51.715Z,103824.03
2023-02-11T19:34:21.142Z,103843.50
2023-02-11T19:36:50.509Z,103847.91
2023-02-11T19:39:19.731Z,103849.06
2023-02-11T19:41:49.630Z,103850.69
2023-02-11T19:44:18.125Z,103840.13
2023-02-11T19:46:48.458Z,103828.16
2023-02-11T19:49:23.034Z,103843.66
2023-02-11T19:51:52.382Z,103850.41
2023-02-11T19:54:22.010Z,103828.69
2023-02-11T19:56:51.717Z,103852.16
2023-02-11T19:59:21.107Z,103864.41
2023-02-11T20:01:49.957Z,103871.47
2023-02-11T20:04:19.772Z,103866.44
2023-02-11T20:06:49.516Z,103859.19
2023-02-11T20:09:17.904Z,103866.44
2023-02-11T20:11:46.352Z,103867.34
2023-02-11T20:14:17.140Z,103846.84
2023-02-11T20:16:49.627Z,103877.41
2023-02-11T20:19:21.568Z,103876.72
2023-02-11T20:21:53.316Z,103865.50
2023-02-11T20:24:21.866Z,103878.72
2023-02-11T20:26:55.409Z,103878.41
2023-02-11T20:29:26.712Z,103853.38
2023-02-11T20:31:55.855Z,103887.09
2023-02-11T20:34:25.154Z,103889.41
2023-02-11T20:36:54.125Z,103899.28
2023-02-11T20:39:23.483Z,103890.22
2023-02-11T20:41:53.683Z,103895.31
2023-02-11T20:44:24.369Z,103896.22
2023-02-11T20:46:54.577Z,103887.78
2023-02-11T20:49:25.359Z,103897.06
2023-02-11T20:51:54.453Z,103898.75
2023-02-11T20:54:24.611Z,103868.75
2023-02-11T20:56:54.032Z,103899.78
2023-02-11T20:59:24.082Z,103918.91
2023-02-11T21:01:55.350Z,103883.28
2023-02-11T21:04:26.130Z,103896.94
2023-02-11T21:06:57.696Z,103869.41
2023-02-11T21:09:28.864Z,103927.03
2023-02-11T21:11:57.448Z,103927.03
2023-02-11T21:14:28.210Z,103932.88
2023-02-11T21:16:56.730Z,103910.34
2023-02-11T21:19:25.559Z,103928.34
2023-02-11T21:21:55.200Z,103918.22
2023-02-11T21:24:23.817Z,103931.88
2023-02-11T21:26:52.198Z,103934.31
2023-02-11T21:29:20.508Z,103932.78
2023-02-11T21:31:51.448Z,103903.63
2023-02-11T21:34:20.757Z,103907.66
2023-02-11T21:36:51.427Z,103934.81
2023-02-11T21:39:20.388Z,103936.72
2023-02-11T21:41:48.954Z,103933.00
2023-02-11T21:44:17.342Z,103934.00
2023-02-11T21:46:46.594Z,103916.09
2023-02-11T21:49:16.342Z,103925.38
2023-02-11T21:51:44.790Z,103953.03
2023-02-11T21:54:13.439Z,103938.25
2023-02-11T21:56:41.959Z,103946.69
2023-02-11T21:59:14.044Z,103943.97
2023-02-11T22:01:42.564Z,103959.41
2023-02-11T22:04:11.396Z,103961.19
2023-02-11T22:06:41.309Z,103949.94
2023-02-11T22:09:11.659Z,103922.94
2023-02-11T22:11:40.446Z,103943.06
2023-02-11T22:14:09.142Z,103941.78
2023-02-11T22:16:37.701Z,103944.97
2023-02-11T22:19:07.518Z,103965.41
2023-02-11T22:21:35.947Z,103953.75
2023-02-11T22:24:06.520Z,103952.75
2023-02-11T22:26:34.875Z,103956.78
2023-02-11T22:29:03.291Z,103928.69
2023-02-11T22:31:34.322Z,103957.66
2023-02-11T22:34:05.172Z,103951.94
2023-02-11T22:36:36.059Z,103932.81
2023-02-11T22:39:09.121Z,103959.88
2023-02-11T22:41:38.362Z,103952.16
2023-02-11T22:44:06.944Z,103926.47
2023-02-11T22:46:35.545Z,103942.38
2023-02-11T22:49:04.285Z,103922.44
2023-02-11T22:51:32.956Z,103964.00
2023-02-11T22:54:04.579Z,103945.09
2023-02-11T22:56:36.252Z,103941.97
2023-02-11T22:59:07.689Z,103936.22
2023-02-11T23:01:36.722Z,103939.66
2023-02-11T23:04:08.681Z,103957.97
2023-02-11T23:06:37.078Z,103962.72
2023-02-11T23:09:06.316Z,103942.78
2023-02-11T23:11:36.658Z,103965.34
2023-02-11T23:14:05.353Z,103942.56
2023-02-11T23:16:35.422Z,103969.47
2023-02-11T23:19:07.432Z,103972.19
2023-02-11T23:21:39.334Z,103964.22
2023-02-11T23:24:12.351Z,103973.47
2023-02-11T23:26:43.822Z,103957.25
2023-02-11T23:29:12.932Z,103952.66
2023-02-11T23:31:46.014Z,103969.88
2023-02-11T23:34:17.156Z,103960.59
2023-02-11T23:36:45.607Z,103964.31
2023-02-11T23:39:17.181Z,103971.75
2023-02-11T23:41:47.715Z,103967.34
2023-02-11T23:44:16.084Z,103971.34
2023-02-11T23:46:44.546Z,103971.75
2023-02-11T23:49:13.051Z,103971.25
2023-02-11T23:51:41.369Z,103950.91
2023-02-11T23:54:11.778Z,103966.44
2023-02-11T23:56:40.334Z,103950.53
2023-02-11T23:59:10.422Z,103941.28
